Impacts TAF Board
For situational awareness. Not to be used for flight planning purposes.
IDs:

KLRU - Las Cruces Intl, NM, US

Issued at 1720 UTC 08 Aug 2020
Updated at 2150 UTC 08 Aug 2020
Potential Impact None Slight Moderate High
Time2135Z 08/22Z 08/23Z 09/00Z 09/01Z 09/02Z 09/03Z 09/04Z 09/05Z 09/06Z 09/07Z 09/08Z 09/09Z 09/10Z>>
Type OBS PRVL PRVL PRVL PRVL PRVL PRVL PRVL PRVL PRVL PRVL PRVL PRVL PRVL
VIS 10 >6 >6 >6 >6 >6 >6 >6 >6 >6 >6 >6 >6 >6
CIG -- -- -- -- -- -- -- -- -- -- -- -- -- --
Cover CLR FEW FEW FEW SCT SCT SCT SCT SCT SCT SCT SCT SCT SCT
FltCat VFR VFR VFR VFR VFR VFR VFR VFR VFR VFR VFR VFR VFR VFR
WX -- -- -- -- -- -- -- -- -- -- -- -- -- --
WDir 110 VRB VRB VRB 270 270 270 270 270 270 270 270 270 270
WSpd 4 5 5 5 8 8 8 8 8 8 8 8 8 8
WGst -- -- -- -- -- -- -- -- -- -- -- -- -- --
Raw TAF
KLRU 081720Z 0818/0918 VRB05KT P6SM FEW140
  FM090100 27008KT P6SM SCT120 SCT250


Raw METAR
KLRU 082135Z AUTO 11004KT 10SM CLR 36/07 A3011 RMK AO2 T03610065
KLRU 082115Z AUTO 13005KT 10SM CLR 35/07 A3012 RMK AO2 T03500065
KLRU 082055Z AUTO 11009KT 080V160 10SM SCT095 36/07 A3012 RMK AO2 T03610066
KLRU 082035Z AUTO 16004KT 10SM SCT095 35/07 A3014 RMK AO2 T03500070
KLRU 082015Z AUTO 06008KT 10SM SCT090 35/07 A3014 RMK AO2 T03520070
KLRU 081955Z AUTO 07003KT 10SM SCT090 34/07 A3015 RMK AO2 T03410072
KLRU 081935Z AUTO 13005KT 090V150 10SM CLR 35/08 A3016 RMK AO2 T03470077
KLRU 081915Z AUTO 09007KT 10SM CLR 35/08 A3016 RMK AO2 T03450079
KLRU 081855Z AUTO 13003KT 10SM CLR 34/08 A3017 RMK AO2 T03390081
KLRU 081835Z AUTO 00000KT 10SM CLR 33/09 A3018 RMK AO2 T03320085

METAR Board
Radar Display
Forecast Discussion
For situational awareness. Not to be used for flight planning purposes.